createdAt,value
2022-10-28T00:09:34.798Z,101338.37
2022-10-28T00:24:37.837Z,101328.88
2022-10-28T00:39:41.051Z,101320.30
2022-10-28T00:54:45.262Z,101312.52
2022-10-28T01:09:48.258Z,101291.09
2022-10-28T01:25:33.311Z,101283.27
2022-10-28T01:41:12.216Z,101264.16
2022-10-28T01:56:19.394Z,101263.98
2022-10-28T02:11:22.455Z,101264.38
2022-10-28T02:26:38.444Z,101259.52
2022-10-28T02:42:06.181Z,101244.44
2022-10-28T02:57:24.633Z,101245.83
2022-10-28T03:12:27.646Z,101224.91
2022-10-28T03:27:31.076Z,101215.63
2022-10-28T03:42:36.439Z,101217.34
2022-10-28T03:57:41.962Z,101220.75
2022-10-28T04:12:44.897Z,101215.10
2022-10-28T04:27:48.935Z,101194.73
2022-10-28T04:42:52.209Z,101180.41
2022-10-28T04:57:57.449Z,101162.47
2022-10-28T05:13:00.790Z,101148.16
2022-10-28T05:28:05.620Z,101135.09
2022-10-28T05:43:10.301Z,101128.35
2022-10-28T05:58:13.287Z,101127.45
2022-10-28T06:13:14.950Z,101116.25
2022-10-28T06:28:18.888Z,101103.98
2022-10-28T06:43:22.126Z,101109.14
2022-10-28T06:58:27.151Z,101113.09
2022-10-28T07:13:35.351Z,101117.20
2022-10-28T07:28:38.730Z,101119.70
2022-10-28T07:43:41.693Z,101110.70
2022-10-28T07:58:45.821Z,101116.96
2022-10-28T08:13:50.346Z,101104.13
2022-10-28T08:28:54.290Z,101104.46
2022-10-28T08:44:36.333Z,101109.31
2022-10-28T08:59:41.769Z,101093.89
2022-10-28T09:15:12.278Z,101081.51
2022-10-28T09:31:05.881Z,101067.92
2022-10-28T09:46:16.325Z,101063.39
2022-10-28T10:01:20.795Z,101052.89
2022-10-28T10:16:33.441Z,101034.83
2022-10-28T10:31:37.047Z,101025.64
2022-10-28T10:46:40.446Z,101012.71
2022-10-28T11:01:44.340Z,100999.20
2022-10-28T11:16:50.914Z,100983.30
2022-10-28T11:32:14.537Z,100956.14
2022-10-28T11:47:18.407Z,100948.41
2022-10-28T12:02:28.135Z,100972.25
2022-10-28T12:17:51.266Z,100983.30
2022-10-28T12:33:05.753Z,100957.86
2022-10-28T12:48:34.183Z,100952.80
2022-10-28T13:03:40.521Z,100946.30
2022-10-28T13:19:37.452Z,100920.16
2022-10-28T13:34:41.391Z,100905.89
2022-10-28T13:50:09.888Z,100902.55
2022-10-28T14:05:16.164Z,100873.27
2022-10-28T14:20:28.852Z,100861.58
2022-10-28T14:35:40.832Z,100843.54
2022-10-28T14:50:48.169Z,100819.81
2022-10-28T15:05:51.377Z,100804.36
2022-10-28T15:21:12.408Z,100817.38
2022-10-28T15:36:20.517Z,100839.80
2022-10-28T15:51:26.241Z,100860.46
2022-10-28T16:06:35.315Z,100855.83
2022-10-28T16:21:39.263Z,100832.83
2022-10-28T16:36:42.820Z,100827.80
2022-10-28T16:51:46.183Z,100810.55
2022-10-28T17:06:49.208Z,100816.02
2022-10-28T17:21:52.488Z,100765.95
2022-10-28T17:36:55.754Z,100774.79
2022-10-28T17:51:59.068Z,100784.77
2022-10-28T18:07:02.507Z,100778.43
2022-10-28T18:22:05.601Z,100760.02
2022-10-28T18:37:10.147Z,100740.88
2022-10-28T18:52:13.496Z,100744.87
2022-10-28T19:07:16.607Z,100734.77
2022-10-28T19:22:19.715Z,100716.20
2022-10-28T19:37:23.472Z,100704.05
2022-10-28T19:52:27.632Z,100695.25
2022-10-28T20:07:31.210Z,100689.21
2022-10-28T20:22:37.530Z,100696.38
2022-10-28T20:37:45.159Z,100684.96
2022-10-28T20:52:48.379Z,100673.38
2022-10-28T21:07:51.911Z,100667.14
2022-10-28T21:22:56.510Z,100651.45
2022-10-28T21:38:00.321Z,100648.21
2022-10-28T21:53:04.330Z,100639.95
2022-10-28T22:08:07.456Z,100638.21
2022-10-28T22:23:10.991Z,100632.61
2022-10-28T22:38:14.273Z,100627.12
2022-10-28T22:53:17.307Z,100622.70
2022-10-28T23:08:20.437Z,100614.29
2022-10-28T23:23:23.735Z,100597.25
2022-10-28T23:38:27.403Z,100594.09
2022-10-28T23:53:31.064Z,100589.30
